Time;durP1;ratioP1;P1;durP2;ratioP2;P2;SDS_P1;SDS_P2;PMS_P1;PMS_P2;Temp;Humidity;BMP_temperature;BMP_pressure;BME280_temperature;BME280_humidity;BME280_pressure;Samples;Min_cycle;Max_cycle;Signal;HPM_P1;HPM_P2
2021/09/09 00:00:44;;;;;;;6.80;4.63;;;;;;;20.07;45.79;100008.13;5030864;28;20412;-80
2021/09/09 00:03:09;;;;;;;6.53;2.97;;;;;;;20.60;45.84;100094.81;5030832;28;20502;-81
2021/09/09 00:05:35;;;;;;;4.20;2.83;;;;;;;20.48;45.62;100058.28;5031068;28;20060;-81
2021/09/09 00:08:01;;;;;;;5.30;3.17;;;;;;;19.63;45.74;99935.94;5030031;28;20057;-81
2021/09/09 00:10:27;;;;;;;7.97;4.40;;;;;;;20.13;45.84;100018.75;5029582;28;20530;-81
2021/09/09 00:12:52;;;;;;;4.85;3.03;;;;;;;20.37;45.85;100061.72;5030798;28;20033;-81
2021/09/09 00:15:18;;;;;;;4.78;2.90;;;;;;;20.38;45.85;100063.34;5029565;28;20470;-81
2021/09/09 00:17:44;;;;;;;6.60;3.47;;;;;;;20.42;45.82;100065.38;5034793;28;20048;-81
2021/09/09 00:20:11;;;;;;;3.75;2.63;;;;;;;20.15;45.83;100011.28;5034813;28;20104;-81
2021/09/09 00:22:37;;;;;;;7.10;3.00;;;;;;;20.55;45.64;100072.41;5034550;28;20108;-81
2021/09/09 00:25:03;;;;;;;5.07;2.78;;;;;;;20.63;45.83;100097.03;5033399;28;20028;-81
2021/09/09 00:27:28;;;;;;;6.20;3.22;;;;;;;20.63;45.88;100088.16;5034673;28;20036;-81
2021/09/09 00:29:54;;;;;;;7.72;3.45;;;;;;;20.42;45.88;100061.88;5034443;28;20029;-81
2021/09/09 00:32:19;;;;;;;6.63;2.97;;;;;;;20.37;45.74;100041.06;5034405;28;20021;-81
2021/09/09 00:34:44;;;;;;;5.38;2.67;;;;;;;20.31;45.94;100048.16;5034472;28;20486;-81
2021/09/09 00:37:10;;;;;;;6.00;3.17;;;;;;;20.41;45.92;100066.41;5034787;28;20099;-81
2021/09/09 00:39:35;;;;;;;5.82;2.63;;;;;;;19.86;45.81;100010.22;5034568;28;20106;-82
2021/09/09 00:42:01;;;;;;;4.35;2.60;;;;;;;19.96;45.99;100007.00;5033115;28;20054;-82
2021/09/09 00:44:27;;;;;;;7.75;2.67;;;;;;;20.49;45.98;100082.19;5033131;28;20067;-81
2021/09/09 00:47:02;;;;;;;4.10;2.47;;;;;;;20.57;45.99;100089.09;5034218;28;20037;-81
2021/09/09 00:49:28;;;;;;;8.00;3.00;;;;;;;20.42;45.83;100053.81;5034306;28;20098;-81
2021/09/09 00:51:54;;;;;;;6.88;2.92;;;;;;;20.40;45.67;100053.25;5033091;28;20053;-81
2021/09/09 00:54:19;;;;;;;5.20;2.90;;;;;;;20.39;46.11;100067.66;5034218;28;20026;-81
2021/09/09 00:56:45;;;;;;;3.35;2.83;;;;;;;20.14;46.06;100014.19;5034220;28;20103;-81
2021/09/09 00:59:10;;;;;;;6.63;2.55;;;;;;;20.55;46.07;100080.44;5034209;28;20151;-81
2021/09/09 01:01:36;;;;;;;5.57;2.45;;;;;;;20.49;45.96;100092.91;5033834;28;20117;-82
2021/09/09 01:04:01;;;;;;;5.85;2.80;;;;;;;19.97;46.22;100005.97;5032626;28;20091;-81
2021/09/09 01:06:27;;;;;;;5.05;2.63;;;;;;;19.50;45.92;99925.38;5033832;28;20086;-81
2021/09/09 01:08:52;;;;;;;4.80;2.53;;;;;;;20.28;45.94;100053.19;5033637;28;20414;-81
2021/09/09 01:11:18;;;;;;;6.75;2.83;;;;;;;19.84;46.51;99980.16;5034089;28;20025;-81
2021/09/09 01:13:50;;;;;;;4.65;2.35;;;;;;;20.37;46.50;100077.81;5033727;28;20042;-81
2021/09/09 01:16:15;;;;;;;4.53;2.80;;;;;;;20.07;46.59;100032.25;5033762;28;20033;-81
2021/09/09 01:18:41;;;;;;;7.35;3.00;;;;;;;19.89;46.68;100008.97;5032517;28;20033;-82
2021/09/09 01:21:06;;;;;;;5.60;2.50;;;;;;;19.88;46.50;100001.97;5033596;28;20040;-81
2021/09/09 01:23:32;;;;;;;4.55;2.45;;;;;;;20.05;46.67;100036.97;5033908;28;20033;-76
2021/09/09 01:25:58;;;;;;;6.18;2.65;;;;;;;19.98;46.63;100024.50;5033760;28;20449;-76
2021/09/09 01:28:23;;;;;;;5.38;2.78;;;;;;;20.13;46.75;100037.50;5032824;28;20034;-76
2021/09/09 01:30:49;;;;;;;3.88;2.53;;;;;;;19.79;46.88;99979.22;5033586;28;20026;-76
2021/09/09 01:33:14;;;;;;;4.57;2.28;;;;;;;20.25;46.64;100046.41;5032239;28;20033;-75
2021/09/09 01:35:40;;;;;;;4.82;2.83;;;;;;;19.91;46.67;99999.66;5033590;28;20029;-75
2021/09/09 01:38:21;;;;;;;6.20;2.40;;;;;;;20.18;46.82;100051.06;5033552;28;20025;-75
2021/09/09 01:40:47;;;;;;;4.05;2.30;;;;;;;20.17;46.88;100040.56;5033344;28;20029;-77
2021/09/09 01:43:12;;;;;;;9.50;2.72;;;;;;;19.79;46.87;99971.19;5033199;28;20021;-76
2021/09/09 01:45:38;;;;;;;8.38;2.78;;;;;;;20.22;46.69;100029.97;5033106;28;20104;-75
2021/09/09 01:48:04;;;;;;;7.18;2.97;;;;;;;19.72;46.67;99946.34;5033139;28;20029;-76
2021/09/09 01:50:29;;;;;;;4.75;2.65;;;;;;;19.83;46.54;99956.28;5031756;28;20033;-76
2021/09/09 01:52:55;;;;;;;4.30;2.72;;;;;;;19.92;46.60;99974.47;5031846;28;20078;-75
2021/09/09 01:55:20;;;;;;;3.28;2.30;;;;;;;19.92;46.68;99989.75;5033087;28;20521;-76
2021/09/09 01:57:46;;;;;;;4.10;2.53;;;;;;;19.64;46.58;99931.41;5033127;28;20075;-76
2021/09/09 02:00:13;;;;;;;3.08;2.38;;;;;;;19.77;46.80;99959.88;5031713;28;20070;-76
2021/09/09 02:02:40;;;;;;;3.90;2.42;;;;;;;19.95;46.78;99994.66;5032652;28;20106;-75
2021/09/09 02:05:06;;;;;;;4.90;2.45;;;;;;;19.62;46.79;99952.25;5033011;28;20032;-75
2021/09/09 02:07:32;;;;;;;3.78;2.60;;;;;;;19.58;46.68;99943.03;5032856;28;20021;-76
2021/09/09 02:09:57;;;;;;;4.95;2.72;;;;;;;20.15;46.78;100037.28;5031506;28;20040;-76
2021/09/09 02:12:22;;;;;;;5.60;2.70;;;;;;;19.31;46.71;99905.81;5032640;28;20501;-75
2021/09/09 02:14:48;;;;;;;6.72;2.55;;;;;;;19.95;46.90;100000.81;5032433;28;20052;-75
2021/09/09 02:17:13;;;;;;;4.60;2.45;;;;;;;20.12;46.83;100024.34;5032823;28;20017;-75
2021/09/09 02:19:39;;;;;;;4.90;2.42;;;;;;;19.86;46.89;99990.66;5032597;28;20113;-75
2021/09/09 02:22:04;;;;;;;5.80;2.40;;;;;;;19.70;46.72;99969.84;5031192;28;20087;-74
2021/09/09 02:24:30;;;;;;;4.88;2.47;;;;;;;19.82;46.64;99986.78;5032756;28;20025;-75
2021/09/09 02:26:55;;;;;;;5.93;3.05;;;;;;;19.87;46.69;99976.22;5032615;28;20096;-76
2021/09/09 02:29:20;;;;;;;5.25;2.60;;;;;;;19.81;46.82;99977.13;5031312;28;20021;-76
2021/09/09 02:31:46;;;;;;;4.95;2.58;;;;;;;19.55;46.63;99925.53;5032419;28;20101;-77
2021/09/09 02:34:11;;;;;;;8.30;2.75;;;;;;;20.13;46.86;100023.28;5032208;28;20095;-75
2021/09/09 02:36:37;;;;;;;6.18;2.50;;;;;;;19.52;46.85;99930.50;5031146;28;20022;-75
2021/09/09 02:39:03;;;;;;;3.88;2.15;;;;;;;19.82;46.89;99970.72;5032315;28;20017;-75
2021/09/09 02:41:28;;;;;;;9.73;3.35;;;;;;;19.99;47.02;99993.97;5032214;28;20482;-76
2021/09/09 02:43:54;;;;;;;6.47;3.05;;;;;;;19.75;46.85;99952.06;5032265;28;20028;-76
2021/09/09 02:46:19;;;;;;;4.50;2.60;;;;;;;19.76;46.95;99945.66;5030692;28;20022;-75
2021/09/09 02:48:44;;;;;;;4.63;2.60;;;;;;;19.84;46.99;99961.41;5032088;28;20029;-76
2021/09/09 02:51:10;;;;;;;9.63;2.53;;;;;;;19.63;47.20;99949.34;5031800;28;20021;-75
2021/09/09 02:53:35;;;;;;;5.10;2.60;;;;;;;19.83;47.19;99981.22;5031911;28;20522;-76
2021/09/09 02:56:01;;;;;;;4.43;2.25;;;;;;;19.71;47.48;99961.59;5031992;28;20025;-76
2021/09/09 02:58:26;;;;;;;5.32;2.38;;;;;;;19.77;47.38;99968.72;5030577;28;20025;-76
2021/09/09 03:00:52;;;;;;;5.97;2.75;;;;;;;19.87;47.60;99990.44;5031844;28;20414;-75
2021/09/09 03:03:17;;;;;;;7.40;2.70;;;;;;;19.66;47.66;99964.97;5030445;28;20513;-75
2021/09/09 03:05:42;;;;;;;5.50;3.00;;;;;;;19.96;48.07;100012.38;5031771;28;20022;-75
2021/09/09 03:08:08;;;;;;;5.32;2.78;;;;;;;19.48;48.38;99948.06;5031847;28;20099;-75
2021/09/09 03:10:33;;;;;;;6.22;2.72;;;;;;;19.91;48.83;100017.59;5031738;28;20108;-77
2021/09/09 03:12:59;;;;;;;5.18;2.80;;;;;;;19.88;49.30;100020.72;5031382;28;20013;-77
2021/09/09 03:15:24;;;;;;;7.22;2.60;;;;;;;19.75;49.77;100005.66;5031210;28;20044;-75
2021/09/09 03:17:49;;;;;;;5.85;3.25;;;;;;;19.55;50.02;99980.97;5031345;28;20482;-75
2021/09/09 03:20:15;;;;;;;5.97;2.78;;;;;;;19.35;50.73;99957.91;5031428;28;20064;-75
2021/09/09 03:22:40;;;;;;;5.30;2.97;;;;;;;19.44;51.24;99982.53;5031464;28;20017;-76
2021/09/09 03:25:06;;;;;;;5.95;2.72;;;;;;;19.30;51.47;99957.75;5031546;28;20028;-75
2021/09/09 03:27:32;;;;;;;4.72;2.78;;;;;;;19.71;51.64;100028.56;5031457;28;20018;-75
2021/09/09 03:29:57;;;;;;;4.20;2.83;;;;;;;19.41;51.80;99993.69;5031358;28;20032;-75
2021/09/09 03:32:22;;;;;;;5.95;3.45;;;;;;;19.56;52.07;100020.94;5030260;28;20021;-76
2021/09/09 03:34:48;;;;;;;3.80;2.75;;;;;;;19.24;52.34;99985.41;5031414;28;20033;-76
2021/09/09 03:37:13;;;;;;;3.92;2.45;;;;;;;19.61;52.56;100041.69;5031406;28;20021;-75
2021/09/09 03:39:39;;;;;;;6.93;3.10;;;;;;;19.18;52.67;99975.59;5031213;28;20108;-75
2021/09/09 03:42:04;;;;;;;4.07;3.00;;;;;;;19.12;52.74;99970.31;5031325;28;20031;-75
2021/09/09 03:44:30;;;;;;;4.82;2.97;;;;;;;19.04;53.04;99950.03;5031203;28;20025;-76
2021/09/09 03:46:55;;;;;;;6.13;3.05;;;;;;;19.42;53.40;100011.38;5031438;28;20104;-75
2021/09/09 03:49:20;;;;;;;8.02;3.00;;;;;;;19.53;53.54;100037.44;5031134;28;20033;-74
2021/09/09 03:51:46;;;;;;;5.10;2.70;;;;;;;19.04;53.81;99952.69;5033312;28;20028;-76
2021/09/09 03:54:12;;;;;;;4.10;2.83;;;;;;;19.05;53.75;99957.81;5035195;28;20028;-76
2021/09/09 03:56:37;;;;;;;5.85;3.20;;;;;;;18.98;54.10;99940.22;5035218;28;20103;-76
2021/09/09 03:59:03;;;;;;;4.82;3.58;;;;;;;19.37;54.13;100005.88;5035069;28;20104;-75
2021/09/09 04:01:28;;;;;;;5.05;2.88;;;;;;;19.02;54.50;99965.47;5035171;28;20057;-76
2021/09/09 04:03:53;;;;;;;4.50;3.15;;;;;;;19.18;54.42;99993.50;5035033;28;20024;-75
2021/09/09 04:06:21;;;;;;;5.15;3.08;;;;;;;18.96;54.46;99982.44;5035127;28;20048;-75
2021/09/09 04:08:46;;;;;;;6.05;3.30;;;;;;;19.11;54.28;99985.56;5034968;28;20021;-75
2021/09/09 04:11:12;;;;;;;3.53;3.05;;;;;;;19.15;54.05;99992.09;5033766;28;20461;-75
2021/09/09 04:13:37;;;;;;;4.57;3.08;;;;;;;19.31;54.15;100022.81;5034931;28;20049;-75
2021/09/09 04:16:03;;;;;;;5.03;2.88;;;;;;;19.09;54.17;99995.66;5034819;28;20045;-75
2021/09/09 04:18:29;;;;;;;3.45;2.80;;;;;;;19.18;54.52;100012.25;5034446;28;20481;-75
2021/09/09 04:20:54;;;;;;;4.05;2.83;;;;;;;18.94;54.39;99969.28;5034568;28;20029;-76
2021/09/09 04:23:19;;;;;;;6.03;3.47;;;;;;;19.35;54.44;100030.22;5034532;28;20449;-75
2021/09/09 04:25:45;;;;;;;5.03;3.38;;;;;;;19.11;54.11;100004.28;5034642;28;20078;-76
2021/09/09 04:28:10;;;;;;;8.57;3.08;;;;;;;19.21;54.55;100019.84;5034737;28;20075;-75
2021/09/09 04:30:36;;;;;;;7.05;3.83;;;;;;;19.05;54.68;100002.50;5034824;28;20056;-75
2021/09/09 04:33:01;;;;;;;6.70;3.40;;;;;;;18.85;54.85;99953.72;5034404;28;20021;-76
2021/09/09 04:35:26;;;;;;;4.20;3.00;;;;;;;19.30;54.74;100022.00;5034470;28;20022;-75
2021/09/09 04:37:52;;;;;;;8.82;3.42;;;;;;;19.09;54.74;99976.13;5034201;28;20029;-76
2021/09/09 04:40:17;;;;;;;8.90;3.33;;;;;;;18.91;54.91;99961.69;5034270;28;20029;-76
2021/09/09 04:42:43;;;;;;;5.68;3.42;;;;;;;19.07;54.63;99965.63;5034269;28;20021;-75
2021/09/09 04:45:08;;;;;;;6.35;3.47;;;;;;;19.10;54.46;99969.72;5034136;28;20025;-76
2021/09/09 04:47:36;;;;;;;8.70;3.00;;;;;;;19.25;54.61;99983.56;5034290;28;20026;-76
2021/09/09 04:50:02;;;;;;;7.03;3.20;;;;;;;18.87;54.57;99912.34;5034202;28;20549;-76
2021/09/09 04:52:28;;;;;;;6.65;3.30;;;;;;;19.15;54.30;99951.13;5034312;28;20546;-76
2021/09/09 04:54:53;;;;;;;7.25;3.42;;;;;;;19.56;54.31;100036.19;5034202;28;20049;-75
2021/09/09 04:57:18;;;;;;;9.50;3.88;;;;;;;19.58;54.44;100026.88;5033959;28;20474;-76
2021/09/09 04:59:44;;;;;;;6.20;3.25;;;;;;;19.15;54.27;99959.16;5033832;28;20025;-76
2021/09/09 05:02:09;;;;;;;8.00;3.65;;;;;;;19.28;54.14;99970.53;5031646;28;20114;-76
2021/09/09 05:04:37;;;;;;;6.00;3.47;;;;;;;19.29;54.10;99966.00;5033311;28;20095;-76
2021/09/09 05:07:03;;;;;;;7.43;3.47;;;;;;;19.73;53.94;100025.66;5033570;28;20104;-75
2021/09/09 05:09:28;;;;;;;7.90;2.88;;;;;;;19.26;53.96;99964.59;5033692;28;20025;-76
2021/09/09 05:11:54;;;;;;;9.35;3.03;;;;;;;19.64;54.08;100023.31;5033548;28;20024;-76
2021/09/09 05:14:19;;;;;;;6.03;2.92;;;;;;;19.62;54.06;100021.88;5033864;28;20037;-76
2021/09/09 05:16:45;;;;;;;4.45;2.80;;;;;;;19.56;53.71;100002.19;5043695;28;20025;-75
2021/09/09 05:19:10;;;;;;;7.07;3.35;;;;;;;19.84;53.78;100031.06;5046107;28;20496;-75
2021/09/09 05:21:35;;;;;;;5.35;3.10;;;;;;;19.47;53.81;99966.00;5033486;28;20018;-76
2021/09/09 05:24:01;;;;;;;8.75;3.03;;;;;;;19.73;53.83;100017.63;5033511;28;20058;-75
2021/09/09 05:26:26;;;;;;;10.52;3.60;;;;;;;19.89;53.77;100031.22;5034113;28;20057;-77
2021/09/09 05:28:52;;;;;;;5.93;3.00;;;;;;;19.93;53.61;100029.72;5053035;28;20048;-76
2021/09/09 05:31:17;;;;;;;4.05;2.88;;;;;;;20.02;53.48;100034.75;5051635;28;20067;-75
2021/09/09 05:33:42;;;;;;;4.82;2.88;;;;;;;20.01;53.42;100033.94;5049698;28;20112;-76
2021/09/09 05:36:08;;;;;;;4.30;2.58;;;;;;;20.04;53.44;100027.31;5052988;28;20071;-74
2021/09/09 05:38:33;;;;;;;9.27;3.22;;;;;;;19.86;53.33;99998.69;5040007;28;20053;-74
2021/09/09 05:40:58;;;;;;;4.93;2.58;;;;;;;20.00;53.23;100008.19;5035093;28;20031;-74
2021/09/09 05:43:24;;;;;;;7.53;3.17;;;;;;;20.02;53.41;100011.44;5040652;28;20047;-74
2021/09/09 05:45:49;;;;;;;5.93;2.88;;;;;;;20.11;53.32;100020.03;5037052;28;20031;-76
2021/09/09 05:48:15;;;;;;;7.03;3.33;;;;;;;20.15;53.11;100019.34;5052757;28;20112;-75
2021/09/09 05:50:40;;;;;;;9.30;3.42;;;;;;;19.93;53.13;99969.94;5051655;28;20090;-76
2021/09/09 05:53:06;;;;;;;9.63;3.60;;;;;;;19.95;53.30;99976.72;5043622;28;20429;-76
2021/09/09 05:55:31;;;;;;;6.15;3.03;;;;;;;20.04;53.29;99977.19;5044008;28;20025;-77
2021/09/09 05:57:56;;;;;;;6.80;3.47;;;;;;;20.36;52.96;100025.22;5039489;28;20468;-76
2021/09/09 06:00:24;;;;;;;6.32;3.05;;;;;;;19.96;52.56;99958.75;5047492;28;20516;-76
2021/09/09 06:02:49;;;;;;;4.57;2.83;;;;;;;20.35;52.64;100015.53;5044809;28;20029;-76
2021/09/09 06:05:16;;;;;;;7.00;3.05;;;;;;;19.96;52.62;99937.31;5040050;28;20461;-76
2021/09/09 06:07:42;;;;;;;10.60;3.50;;;;;;;20.38;52.61;100012.38;5038803;28;20024;-77
2021/09/09 06:10:08;;;;;;;5.82;2.85;;;;;;;20.47;52.53;100017.22;5036260;28;20028;-75
2021/09/09 06:12:34;;;;;;;5.15;2.95;;;;;;;19.98;52.38;99940.59;5033645;28;20030;-76
2021/09/09 06:14:59;;;;;;;6.63;3.25;;;;;;;20.55;52.03;100018.75;5038834;28;20048;-76
2021/09/09 06:17:25;;;;;;;6.00;2.88;;;;;;;20.60;52.11;100021.53;5040634;28;20021;-75
2021/09/09 06:19:50;;;;;;;6.93;4.43;;;;;;;20.39;52.11;99987.19;5033106;28;20044;-77
2021/09/09 06:22:16;;;;;;;5.85;3.15;;;;;;;20.62;51.53;99998.00;5050460;28;20029;-76
2021/09/09 06:24:41;;;;;;;3.15;2.85;;;;;;;20.81;51.37;100022.88;5045811;28;20020;-77
2021/09/09 06:27:07;;;;;;;6.38;2.92;;;;;;;20.86;51.30;100023.00;5052333;28;20020;-76
2021/09/09 06:29:32;;;;;;;4.28;2.92;;;;;;;20.89;51.19;100026.03;5050074;28;20135;-75
2021/09/09 06:31:58;;;;;;;5.28;2.53;;;;;;;20.93;51.17;100019.13;5042369;28;20650;-77
2021/09/09 06:34:23;;;;;;;9.63;3.20;;;;;;;20.60;51.27;99960.66;5041050;28;20033;-76
2021/09/09 06:36:49;;;;;;;5.28;2.85;;;;;;;20.40;51.08;99919.13;5039415;28;20087;-75
2021/09/09 06:39:14;;;;;;;4.00;2.50;;;;;;;20.93;50.57;99986.09;5034453;28;20041;-75
2021/09/09 06:41:45;;;;;;;3.67;2.75;;;;;;;21.25;50.02;100021.47;5050237;28;20029;-76
2021/09/09 06:44:12;;;;;;;3.83;2.83;;;;;;;21.20;49.79;100007.91;5031295;28;20276;-76
2021/09/09 06:46:37;;;;;;;4.90;2.63;;;;;;;21.25;49.58;100016.09;5036801;28;20039;-76
2021/09/09 06:49:03;;;;;;;5.95;2.80;;;;;;;21.32;49.44;100022.16;5041717;28;20029;-76
2021/09/09 06:51:30;;;;;;;6.20;3.50;;;;;;;21.36;49.33;100025.19;5037534;28;20426;-76
2021/09/09 06:53:55;;;;;;;9.43;5.32;;;;;;;21.29;49.29;100013.75;5041072;28;20037;-76
2021/09/09 06:56:21;;;;;;;5.25;3.38;;;;;;;21.40;49.10;100026.34;5032579;28;20486;-75
2021/09/09 06:58:46;;;;;;;11.23;3.92;;;;;;;21.38;49.13;100023.09;5043958;28;20025;-75
2021/09/09 07:01:11;;;;;;;6.70;4.00;;;;;;;21.10;49.16;99991.56;5031075;28;20026;-76
2021/09/09 07:03:37;;;;;;;6.20;4.30;;;;;;;21.17;49.10;99989.56;5030625;28;20474;-76
2021/09/09 07:06:02;;;;;;;5.65;3.28;;;;;;;21.31;48.96;100012.47;5044705;28;20078;-78
2021/09/09 07:08:28;;;;;;;4.35;2.80;;;;;;;21.19;48.75;100001.72;5051213;28;20036;-78
2021/09/09 07:10:53;;;;;;;5.43;2.53;;;;;;;21.28;48.66;100026.38;5039107;28;20125;-78
2021/09/09 07:13:20;;;;;;;8.13;3.90;;;;;;;20.88;48.56;99940.38;5031129;28;20029;-79
2021/09/09 07:15:46;;;;;;;6.45;2.70;;;;;;;21.21;48.48;99999.63;5031344;28;20037;-79
2021/09/09 07:18:12;;;;;;;4.40;2.55;;;;;;;21.19;48.43;99976.72;5031304;28;20486;-78
2021/09/09 07:20:37;;;;;;;6.25;3.00;;;;;;;21.27;48.35;99968.34;5031143;28;20038;-78
2021/09/09 07:23:03;;;;;;;5.97;2.92;;;;;;;21.43;48.01;99982.88;5033202;28;20021;-78
2021/09/09 07:25:28;;;;;;;4.30;2.72;;;;;;;21.43;47.96;99958.72;5030250;28;20041;-76
2021/09/09 07:27:54;;;;;;;5.43;3.47;;;;;;;21.38;48.00;99956.75;5030800;28;20525;-79
2021/09/09 07:30:19;;;;;;;5.68;3.00;;;;;;;21.76;47.83;100022.53;5033205;28;20037;-79
2021/09/09 07:32:45;;;;;;;9.15;4.22;;;;;;;21.75;47.93;100018.22;5030526;28;20017;-79
2021/09/09 07:35:11;;;;;;;8.20;3.85;;;;;;;21.50;48.16;99987.06;5033829;28;20751;-78
2021/09/09 07:37:37;;;;;;;5.72;3.47;;;;;;;21.60;48.08;99996.41;5049034;28;20033;-78
2021/09/09 07:40:04;;;;;;;6.72;3.60;;;;;;;21.85;48.01;100013.03;5037706;28;20478;-79
2021/09/09 07:42:29;;;;;;;8.32;3.50;;;;;;;21.77;48.00;99998.09;5030235;28;20032;-80
2021/09/09 07:44:55;;;;;;;5.05;3.00;;;;;;;22.00;47.75;100018.69;5040878;28;20024;-79
2021/09/09 07:47:20;;;;;;;9.93;4.25;;;;;;;21.64;47.73;99950.00;5044960;28;20021;-79
2021/09/09 07:49:45;;;;;;;5.43;3.40;;;;;;;21.87;47.38;99976.78;5050748;28;20029;-75
2021/09/09 07:52:11;;;;;;;10.57;4.03;;;;;;;22.14;47.26;100016.53;5039637;28;20023;-74
2021/09/09 07:54:36;;;;;;;9.23;3.67;;;;;;;22.13;47.40;100020.28;5036188;28;20441;-76
2021/09/09 07:57:02;;;;;;;5.63;3.03;;;;;;;22.08;47.40;100026.41;5034131;28;20033;-76
2021/09/09 07:59:27;;;;;;;7.65;3.10;;;;;;;22.00;47.36;100010.63;5050633;28;20039;-74
2021/09/09 08:01:52;;;;;;;6.75;4.38;;;;;;;21.95;47.46;100007.84;5043780;28;20101;-75
2021/09/09 08:04:18;;;;;;;7.47;3.78;;;;;;;21.72;47.54;99975.69;5045551;28;20028;-75
2021/09/09 08:06:44;;;;;;;6.35;3.63;;;;;;;22.09;47.44;100019.97;5050422;28;20518;-76
2021/09/09 08:09:10;;;;;;;6.80;3.95;;;;;;;22.15;47.40;100020.88;5039133;28;20545;-76
2021/09/09 08:11:36;;;;;;;6.45;4.45;;;;;;;21.88;47.63;99980.28;5030567;28;20104;-76
2021/09/09 08:14:02;;;;;;;6.25;4.10;;;;;;;22.00;47.46;100012.50;5041093;28;20124;-75
2021/09/09 08:16:27;;;;;;;7.28;3.92;;;;;;;22.05;47.75;100021.50;5054003;28;20033;-75
2021/09/09 08:18:52;;;;;;;8.73;4.63;;;;;;;21.69;47.83;99960.84;5049166;28;20080;-74
2021/09/09 08:21:18;;;;;;;5.95;3.65;;;;;;;21.79;47.81;99970.97;5060607;28;20066;-75
2021/09/09 08:23:43;;;;;;;7.68;4.03;;;;;;;21.88;47.66;99981.09;5058823;28;20108;-75
2021/09/09 08:26:10;;;;;;;7.65;4.00;;;;;;;21.93;47.82;99993.81;5049818;28;20029;-74
2021/09/09 08:28:36;;;;;;;6.05;4.57;;;;;;;21.91;47.82;99985.19;5044275;28;20486;-75
2021/09/09 08:31:02;;;;;;;6.50;3.80;;;;;;;22.26;47.88;100011.09;5036697;28;20032;-74
2021/09/09 08:33:27;;;;;;;7.05;3.40;;;;;;;22.09;47.64;99965.34;5035704;28;20062;-74
2021/09/09 08:35:53;;;;;;;9.45;5.03;;;;;;;22.40;47.55;100012.44;5030469;28;20033;-74
2021/09/09 08:38:18;;;;;;;8.45;3.58;;;;;;;22.45;47.48;100009.84;5033055;28;20105;-75
2021/09/09 08:40:50;;;;;;;5.70;3.20;;;;;;;22.24;47.41;99964.78;5049003;28;20024;-75
2021/09/09 08:43:15;;;;;;;4.93;2.90;;;;;;;22.29;47.41;99960.31;5053825;28;20048;-75
2021/09/09 08:45:40;;;;;;;6.88;3.58;;;;;;;22.60;47.36;99995.81;5048228;28;20086;-74
2021/09/09 08:48:07;;;;;;;6.35;3.38;;;;;;;22.65;47.22;99999.38;5042672;28;20021;-74
2021/09/09 08:50:33;;;;;;;8.15;3.67;;;;;;;22.52;47.23;99984.41;5049388;28;20113;-74
2021/09/09 08:53:03;;;;;;;7.68;3.30;;;;;;;22.25;47.60;99961.03;5033782;28;20025;-74
2021/09/09 08:55:29;;;;;;;8.18;3.50;;;;;;;22.49;47.60;100000.22;5037776;28;20516;-75
2021/09/09 08:57:56;;;;;;;6.97;3.50;;;;;;;22.42;47.49;99996.88;5052598;28;20036;-75
2021/09/09 09:00:21;;;;;;;8.93;4.07;;;;;;;22.39;47.85;100000.88;5045588;28;20052;-75
2021/09/09 09:02:54;;;;;;;9.77;5.35;;;;;;;22.07;47.87;99946.78;5034640;28;20096;-74
2021/09/09 09:05:21;;;;;;;10.35;7.47;;;;;;;22.06;47.93;99966.66;5033888;28;20576;-73
2021/09/09 09:07:56;;;;;;;6.63;4.07;;;;;;;21.83;48.26;99931.81;5035308;28;20021;-75
2021/09/09 09:10:21;;;;;;;10.85;7.55;;;;;;;21.87;48.09;99930.25;5034252;28;20540;-75
2021/09/09 09:12:50;;;;;;;9.60;6.55;;;;;;;22.30;48.05;99988.06;5034239;28;20029;-75
2021/09/09 09:15:17;;;;;;;10.00;4.97;;;;;;;22.31;48.03;99987.00;5039473;28;20059;-75
2021/09/09 09:18:08;;;;;;;7.45;4.25;;;;;;;22.28;47.98;99990.97;5036841;28;20053;-75
2021/09/09 09:20:38;;;;;;;4.90;3.73;;;;;;;22.24;48.02;99989.00;5032710;28;20409;-75
2021/09/09 09:23:15;;;;;;;8.13;4.28;;;;;;;22.24;48.23;99980.94;5032666;28;20355;-74
2021/09/09 09:25:51;;;;;;;9.40;6.25;;;;;;;21.78;48.03;99912.91;5033365;28;20037;-73
2021/09/09 09:28:42;;;;;;;4.65;3.58;;;;;;;22.20;47.92;99969.84;5033522;28;20147;-75
2021/09/09 09:31:13;;;;;;;10.00;6.28;;;;;;;22.26;48.03;99976.94;5032400;28;20095;-74
2021/09/09 09:33:44;;;;;;;10.27;5.13;;;;;;;22.25;47.87;99969.94;5034449;28;20461;-75
2021/09/09 09:36:24;;;;;;;9.25;4.80;;;;;;;22.25;48.03;99966.44;5046236;28;20037;-75
2021/09/09 09:38:55;;;;;;;10.15;5.18;;;;;;;22.17;48.09;99967.66;5053019;28;20578;-74
2021/09/09 09:41:23;;;;;;;5.68;4.13;;;;;;;21.85;48.09;99929.69;5040622;28;20094;-74
2021/09/09 09:43:50;;;;;;;7.60;4.07;;;;;;;21.78;47.95;99924.47;5039625;28;20029;-74
2021/09/09 09:46:28;;;;;;;7.93;4.00;;;;;;;22.04;48.08;99971.47;5048274;28;20026;-75
2021/09/09 09:48:54;;;;;;;9.70;4.43;;;;;;;21.78;48.03;99939.78;5037409;28;20040;-75
2021/09/09 09:51:40;;;;;;;7.22;3.60;;;;;;;21.88;48.23;99956.91;5042853;28;20017;-75
2021/09/09 09:54:08;;;;;;;7.82;3.88;;;;;;;21.94;48.05;99967.75;5036379;28;20528;-75
2021/09/09 09:56:35;;;;;;;6.38;3.63;;;;;;;21.29;48.01;99853.44;5052784;28;20025;-74
2021/09/09 09:59:00;;;;;;;5.38;3.35;;;;;;;22.01;47.96;99946.91;5044084;28;20025;-74
2021/09/09 10:01:26;;;;;;;7.18;4.25;;;;;;;22.15;47.56;99950.94;5032614;28;20520;-74
2021/09/09 10:03:53;;;;;;;8.07;3.88;;;;;;;21.91;47.51;99901.84;5031562;28;20026;-75
2021/09/09 10:06:18;;;;;;;12.10;3.60;;;;;;;22.02;46.96;99918.97;5032474;28;20059;-75
2021/09/09 10:08:44;;;;;;;10.00;4.40;;;;;;;22.06;47.18;99914.75;5036664;28;20493;-76
2021/09/09 10:11:11;;;;;;;11.07;5.65;;;;;;;22.05;47.01;99913.13;5034245;28;20030;-75
2021/09/09 10:13:38;;;;;;;7.68;4.72;;;;;;;21.98;47.08;99912.44;5038757;28;20119;-74
2021/09/09 10:16:04;;;;;;;7.82;4.15;;;;;;;22.15;47.12;99932.94;5052298;28;20033;-74
2021/09/09 10:18:30;;;;;;;8.57;3.70;;;;;;;21.68;47.03;99877.78;5042126;28;20033;-74
2021/09/09 10:20:56;;;;;;;12.57;4.55;;;;;;;21.61;47.13;99869.06;5030420;28;20025;-75
2021/09/09 10:23:25;;;;;;;6.22;3.92;;;;;;;21.89;47.41;99931.66;5034105;28;20052;-75
2021/09/09 10:25:58;;;;;;;16.50;4.43;;;;;;;21.78;47.39;99929.03;5040841;28;20082;-74
2021/09/09 10:28:50;;;;;;;9.23;3.58;;;;;;;21.75;47.69;99933.03;5050659;28;20463;-75
2021/09/09 10:31:24;;;;;;;8.65;3.63;;;;;;;21.23;47.86;99857.88;5030931;28;20497;-75
2021/09/09 10:33:53;;;;;;;8.70;4.07;;;;;;;21.54;48.00;99926.44;5031789;28;20114;-74
2021/09/09 10:36:39;;;;;;;7.53;3.97;;;;;;;21.55;48.15;99919.19;5031858;28;20491;-74
2021/09/09 10:39:06;;;;;;;5.20;3.53;;;;;;;21.53;48.14;99924.78;5031552;28;20021;-76
2021/09/09 10:41:31;;;;;;;5.88;3.25;;;;;;;21.25;48.16;99882.63;5035121;28;20082;-74
2021/09/09 10:43:59;;;;;;;9.20;3.70;;;;;;;21.50;48.19;99924.47;5051600;28;20413;-74
2021/09/09 10:46:51;;;;;;;6.20;3.90;;;;;;;21.50;48.49;99929.84;5051672;28;20016;-75
2021/09/09 10:49:21;;;;;;;;;;;;;;;21.35;48.85;99924.16;5048697;28;20040;-76
2021/09/09 10:52:08;;;;;;;9.45;4.22;;;;;;;21.42;48.76;99930.22;5051625;28;19992;-75
2021/09/09 10:55:01;;;;;;;9.30;4.07;;;;;;;21.46;48.79;99926.00;5051889;28;20036;-75
2021/09/09 10:57:26;;;;;;;10.55;5.45;;;;;;;21.49;48.42;99926.34;5050271;28;20091;-75
2021/09/09 10:59:52;;;;;;;7.20;5.20;;;;;;;21.08;48.48;99867.50;5038647;28;20029;-74
2021/09/09 11:02:18;;;;;;;7.95;4.93;;;;;;;21.44;48.66;99912.81;5046493;28;20063;-75
2021/09/09 11:04:51;;;;;;;9.30;5.03;;;;;;;21.00;48.72;99849.06;5033398;28;20120;-75
2021/09/09 11:07:21;;;;;;;5.63;3.72;;;;;;;21.42;48.72;99919.47;5028846;28;20072;-76
2021/09/09 11:09:47;;;;;;;8.52;4.60;;;;;;;20.90;48.95;99829.03;5036011;28;20033;-75
2021/09/09 11:12:12;;;;;;;7.53;4.38;;;;;;;21.38;48.81;99905.72;5031012;28;20469;-76
2021/09/09 11:14:38;;;;;;;7.22;3.55;;;;;;;21.38;49.03;99911.06;5057623;28;20044;-75
2021/09/09 11:17:03;;;;;;;7.75;4.03;;;;;;;21.43;48.93;99913.84;5036042;28;20021;-75
2021/09/09 11:19:29;;;;;;;6.45;3.58;;;;;;;21.10;48.92;99870.75;5052769;28;20489;-75
2021/09/09 11:21:59;;;;;;;5.82;3.53;;;;;;;21.47;48.97;99916.88;5038084;28;20029;-76
2021/09/09 11:24:25;;;;;;;8.27;3.88;;;;;;;21.42;48.92;99904.16;5047084;28;20083;-75
2021/09/09 11:26:51;;;;;;;8.55;4.88;;;;;;;21.23;49.25;99875.88;5037833;28;20457;-75